Time;durP1;ratioP1;P1;durP2;ratioP2;P2;SDS_P1;SDS_P2;PMS_P1;PMS_P2;Temp;Humidity;BMP_temperature;BMP_pressure;BME280_temperature;BME280_humidity;BME280_pressure;Samples;Min_cycle;Max_cycle;Signal;HPM_P1;HPM_P2
2022/12/30 00:02:06;;;;;;;;;;;6.40;99.90;;;;;;5013958;28;20008;-74
2022/12/30 00:04:38;;;;;;;;;;;6.50;99.90;;;;;;5001108;28;19930;-73
2022/12/30 00:07:11;;;;;;;;;;;6.50;99.90;;;;;;5028559;28;19925;-73
2022/12/30 00:09:42;;;;;;;;;;;6.50;99.90;;;;;;5013450;28;19936;-74
2022/12/30 00:34:49;;;;;;;;;;;6.30;99.90;;;;;;5031084;28;19932;-73
2022/12/30 00:37:19;;;;;;;;;;;6.40;99.90;;;;;;4998681;28;19931;-74
2022/12/30 00:39:48;;;;;;;;;;;6.40;99.90;;;;;;5012443;28;19956;-73
2022/12/30 00:45:06;;;;;;;;;;;6.30;99.90;;;;;;5011292;28;19933;-72
2022/12/30 00:47:35;;;;;;;;;;;6.30;99.90;;;;;;5021957;28;20015;-74
2022/12/30 00:58:31;;;;;;;;;;;6.30;99.90;;;;;;5030803;28;19925;-73
2022/12/30 01:01:00;;;;;;;;;;;6.30;99.90;;;;;;5017769;28;19937;-74
2022/12/30 01:03:28;;;;;;;;;;;6.30;99.90;;;;;;5004681;28;19925;-73
2022/12/30 01:05:56;;;;;;;;;;;6.20;99.90;;;;;;4997337;28;20023;-72
2022/12/30 01:08:26;;;;;;;;;;;6.20;99.90;;;;;;5013573;28;19925;-74
2022/12/30 01:10:55;;;;;;;;;;;6.20;99.90;;;;;;4994401;28;19929;-74
2022/12/30 01:13:24;;;;;;;;;;;6.10;99.90;;;;;;5010506;28;19979;-73
2022/12/30 01:15:56;;;;;;;;;;;6.10;99.90;;;;;;5005136;28;19951;-73
2022/12/30 01:18:26;;;;;;;;;;;6.10;99.90;;;;;;4997717;28;19979;-73
2022/12/30 01:20:59;;;;;;;;;;;6.10;99.90;;;;;;5015689;28;19925;-74
2022/12/30 01:23:30;;;;;;;;;;;6.10;99.90;;;;;;5008296;28;19925;-73
2022/12/30 01:26:02;;;;;;;;;;;6.00;99.90;;;;;;5024767;28;20181;-73
2022/12/30 01:28:31;;;;;;;;;;;6.00;99.90;;;;;;5013356;28;19925;-73
2022/12/30 01:31:03;;;;;;;;;;;6.10;99.90;;;;;;4993150;28;20274;-72
2022/12/30 01:33:33;;;;;;;;;;;6.00;99.90;;;;;;4999140;28;19925;-73
2022/12/30 01:36:03;;;;;;;;;;;6.00;99.90;;;;;;5003104;28;19972;-73
2022/12/30 01:38:33;;;;;;;;;;;6.00;99.90;;;;;;4994996;28;19926;-73
2022/12/30 01:41:01;;;;;;;;;;;6.00;99.90;;;;;;5010771;28;19991;-73
2022/12/30 01:43:45;;;;;;;;;;;5.90;99.90;;;;;;4988793;28;19929;-74
2022/12/30 01:46:21;;;;;;;;;;;5.90;99.90;;;;;;5015065;28;19948;-73
2022/12/30 01:48:51;;;;;;;;;;;5.80;99.90;;;;;;4996937;28;19925;-73
2022/12/30 01:51:26;;;;;;;;;;;5.90;99.90;;;;;;5010702;28;20396;-73
2022/12/30 01:53:57;;;;;;;;;;;5.80;99.90;;;;;;5012697;28;19933;-73
2022/12/30 01:56:34;;;;;;;;;;;5.80;99.90;;;;;;5012989;28;19925;-74
2022/12/30 01:59:05;;;;;;;;;;;5.80;99.90;;;;;;5009619;28;19925;-72
2022/12/30 02:01:36;;;;;;;;;;;5.80;99.90;;;;;;5004702;28;19933;-74
2022/12/30 02:04:07;;;;;;;;;;;5.80;99.90;;;;;;5009872;28;19925;-72
2022/12/30 02:06:50;;;;;;;;;;;5.80;99.90;;;;;;5015851;28;20062;-73
2022/12/30 02:09:21;;;;;;;;;;;5.80;99.90;;;;;;5010591;28;19975;-73
2022/12/30 02:11:51;;;;;;;;;;;5.70;99.90;;;;;;5025677;28;19933;-72
2022/12/30 02:14:23;;;;;;;;;;;5.70;99.90;;;;;;5024834;28;19929;-74
2022/12/30 02:16:51;;;;;;;;;;;5.60;99.90;;;;;;5006964;28;19992;-73
2022/12/30 02:19:24;;;;;;;;;;;5.70;99.90;;;;;;5026781;28;19925;-71
2022/12/30 02:22:04;;;;;;;;;;;5.70;99.90;;;;;;4994217;28;19931;-71
2022/12/30 02:24:48;;;;;;;;;;;5.70;99.90;;;;;;4994600;28;19983;-73
2022/12/30 02:27:27;;;;;;;;;;;5.60;99.90;;;;;;5012588;28;19932;-73
2022/12/30 02:29:57;;;;;;;;;;;5.60;99.90;;;;;;5022645;28;19925;-74
2022/12/30 02:32:45;;;;;;;;;;;5.60;99.90;;;;;;5011503;28;20024;-72
2022/12/30 02:35:26;;;;;;;;;;;5.60;99.90;;;;;;5029352;28;19966;-73
2022/12/30 02:38:01;;;;;;;;;;;5.60;99.90;;;;;;5021737;28;19925;-74
2022/12/30 02:44:36;;;;;;;;;;;5.50;99.90;;;;;;5010158;28;20288;-73
2022/12/30 02:46:12;;;;;;;;;;;5.50;99.90;;;;;;5009714;28;19932;-73
2022/12/30 02:48:44;;;;;;;;;;;5.60;99.90;;;;;;5006831;28;20280;-71
2022/12/30 02:54:01;;;;;;;;;;;5.50;99.90;;;;;;5006983;28;19975;-73
2022/12/30 02:56:30;;;;;;;;;;;5.50;99.90;;;;;;5021912;28;19925;-74
2022/12/30 03:04:45;;;;;;;;;;;5.50;99.90;;;;;;5025048;28;20407;-73
2022/12/30 03:07:22;;;;;;;;;;;5.50;99.90;;;;;;5027406;28;20292;-73
2022/12/30 03:12:57;;;;;;;;;;;5.50;99.90;;;;;;5016637;28;20388;-74
2022/12/30 03:15:31;;;;;;;;;;;5.50;99.90;;;;;;5002927;28;20084;-73
2022/12/30 03:18:02;;;;;;;;;;;5.50;99.90;;;;;;5032457;28;19929;-73
2022/12/30 03:20:32;;;;;;;;;;;5.50;99.90;;;;;;5014475;28;19956;-73
2022/12/30 03:29:02;;;;;;;;;;;5.40;99.90;;;;;;5026837;28;19964;-72
2022/12/30 03:31:35;;;;;;;;;;;5.40;99.90;;;;;;5030166;28;19957;-74
2022/12/30 03:34:04;;;;;;;;;;;5.40;99.90;;;;;;4997050;28;20410;-73
2022/12/30 03:36:37;;;;;;;;;;;5.40;99.90;;;;;;5024468;28;20339;-74
2022/12/30 03:39:08;;;;;;;;;;;5.40;99.90;;;;;;5022941;28;19971;-74
2022/12/30 03:41:38;;;;;;;;;;;5.40;99.90;;;;;;5028600;28;20020;-74
2022/12/30 03:44:08;;;;;;;;;;;5.40;99.90;;;;;;4997546;28;19931;-73
2022/12/30 03:46:40;;;;;;;;;;;5.40;99.90;;;;;;5029401;28;20588;-73
2022/12/30 03:49:09;;;;;;;;;;;5.40;99.90;;;;;;5014260;28;19931;-74
2022/12/30 03:51:39;;;;;;;;;;;5.30;99.90;;;;;;4994008;28;19979;-72
2022/12/30 03:54:08;;;;;;;;;;;5.30;99.90;;;;;;5009374;28;19940;-74
2022/12/30 03:56:38;;;;;;;;;;;5.30;99.90;;;;;;4998437;28;20375;-73
2022/12/30 03:59:07;;;;;;;;;;;5.30;99.90;;;;;;5016202;28;20291;-73
2022/12/30 04:01:37;;;;;;;;;;;5.30;99.90;;;;;;4993304;28;20347;-73
2022/12/30 04:04:06;;;;;;;;;;;5.30;99.90;;;;;;5025665;28;20311;-74
2022/12/30 04:06:36;;;;;;;;;;;5.30;99.90;;;;;;5009919;28;19930;-72
2022/12/30 04:09:05;;;;;;;;;;;5.20;99.90;;;;;;4978665;28;20551;-73
2022/12/30 04:11:35;;;;;;;;;;;5.30;99.90;;;;;;4993215;28;20012;-73
2022/12/30 04:14:04;;;;;;;;;;;5.30;99.90;;;;;;5030511;28;19929;-74
2022/12/30 04:16:33;;;;;;;;;;;5.30;99.90;;;;;;5020007;28;20431;-74
2022/12/30 04:19:06;;;;;;;;;;;5.30;99.90;;;;;;5013909;28;20415;-72
2022/12/30 04:21:38;;;;;;;;;;;5.30;99.90;;;;;;5027358;28;19925;-74
2022/12/30 04:24:10;;;;;;;;;;;5.30;99.90;;;;;;5030840;28;19968;-73
2022/12/30 04:26:42;;;;;;;;;;;5.30;99.90;;;;;;5032281;28;19929;-73
2022/12/30 04:29:13;;;;;;;;;;;5.20;99.90;;;;;;5032190;28;19984;-73
2022/12/30 04:31:45;;;;;;;;;;;5.20;99.90;;;;;;5015272;28;19926;-72
2022/12/30 04:34:14;;;;;;;;;;;5.20;99.90;;;;;;5032306;28;19932;-71
2022/12/30 04:36:46;;;;;;;;;;;5.20;99.90;;;;;;5020118;28;19925;-72
2022/12/30 04:39:13;;;;;;;;;;;5.20;99.90;;;;;;5010534;28;19964;-72
2022/12/30 04:41:44;;;;;;;;;;;5.20;99.90;;;;;;5011499;28;19953;-72
2022/12/30 04:44:11;;;;;;;;;;;5.20;99.90;;;;;;5026335;28;20391;-72
2022/12/30 04:46:43;;;;;;;;;;;5.20;99.90;;;;;;5021770;28;19928;-71
2022/12/30 04:49:15;;;;;;;;;;;5.20;99.90;;;;;;5029158;28;19925;-72
2022/12/30 04:51:47;;;;;;;;;;;5.20;99.90;;;;;;5032188;28;19925;-72
2022/12/30 04:54:18;;;;;;;;;;;5.20;99.90;;;;;;5015435;28;19933;-72
2022/12/30 04:56:50;;;;;;;;;;;5.20;99.90;;;;;;5032555;28;19925;-72
2022/12/30 04:59:21;;;;;;;;;;;5.20;99.90;;;;;;5026116;28;19936;-73
2022/12/30 05:01:53;;;;;;;;;;;5.20;99.90;;;;;;5014564;28;19979;-73
2022/12/30 05:04:25;;;;;;;;;;;5.20;99.90;;;;;;5031476;28;19970;-72
2022/12/30 05:06:57;;;;;;;;;;;5.20;99.90;;;;;;5012920;28;19960;-72
2022/12/30 05:09:29;;;;;;;;;;;5.20;99.90;;;;;;5014000;28;20301;-72
2022/12/30 05:12:00;;;;;;;;;;;5.20;99.90;;;;;;5025757;28;19931;-71
2022/12/30 05:14:32;;;;;;;;;;;5.20;99.90;;;;;;5032049;28;19925;-73
2022/12/30 05:17:04;;;;;;;;;;;5.20;99.90;;;;;;5014065;28;19929;-71
2022/12/30 05:19:36;;;;;;;;;;;5.20;99.90;;;;;;5022128;28;20366;-72
2022/12/30 05:22:07;;;;;;;;;;;5.10;99.90;;;;;;5013555;28;20010;-71
2022/12/30 05:27:30;;;;;;;;;;;5.00;99.90;;;;;;5029298;28;19959;-72
2022/12/30 05:29:56;;;;;;;;;;;5.00;99.90;;;;;;5021812;28;19932;-72
2022/12/30 05:32:28;;;;;;;;;;;5.00;99.90;;;;;;5013774;28;19932;-72
2022/12/30 05:35:00;;;;;;;;;;;4.90;99.90;;;;;;5019775;28;20395;-73
2022/12/30 05:37:31;;;;;;;;;;;4.90;99.90;;;;;;5022962;28;20009;-71
2022/12/30 05:39:58;;;;;;;;;;;4.80;99.90;;;;;;5013355;28;19932;-73
2022/12/30 05:42:30;;;;;;;;;;;4.90;99.90;;;;;;4998385;28;19933;-73
2022/12/30 05:45:02;;;;;;;;;;;4.80;99.90;;;;;;4999152;28;19932;-71
2022/12/30 05:47:34;;;;;;;;;;;4.80;99.90;;;;;;5023322;28;19925;-72
2022/12/30 05:50:06;;;;;;;;;;;4.80;99.90;;;;;;5013391;28;19925;-72
2022/12/30 05:52:32;;;;;;;;;;;4.80;99.90;;;;;;5023112;28;19925;-72
2022/12/30 05:55:04;;;;;;;;;;;4.80;99.90;;;;;;4997917;28;19933;-72
2022/12/30 05:57:36;;;;;;;;;;;4.90;99.90;;;;;;4998067;28;19925;-72
2022/12/30 06:00:08;;;;;;;;;;;4.90;99.90;;;;;;5030759;28;19931;-72
2022/12/30 06:02:40;;;;;;;;;;;5.00;99.90;;;;;;5013321;28;20164;-72
2022/12/30 06:05:12;;;;;;;;;;;5.00;99.90;;;;;;5013338;28;19925;-72
2022/12/30 06:07:43;;;;;;;;;;;5.00;99.90;;;;;;5031759;28;19953;-74
2022/12/30 06:10:10;;;;;;;;;;;5.10;99.90;;;;;;5038191;28;20140;-74
2022/12/30 06:12:42;;;;;;;;;;;5.10;99.90;;;;;;5029353;28;19925;-72
2022/12/30 06:15:14;;;;;;;;;;;5.10;99.90;;;;;;5010438;28;19925;-73
2022/12/30 06:17:45;;;;;;;;;;;5.10;99.90;;;;;;5007169;28;19925;-72
2022/12/30 06:20:17;;;;;;;;;;;5.10;99.90;;;;;;5011102;28;20273;-73
2022/12/30 06:22:49;;;;;;;;;;;5.10;99.90;;;;;;4998806;28;20344;-72
2022/12/30 06:25:16;;;;;;;;;;;5.10;99.90;;;;;;5010610;28;19996;-72
2022/12/30 06:27:48;;;;;;;;;;;5.10;99.90;;;;;;5024251;28;19932;-73
2022/12/30 06:30:20;;;;;;;;;;;5.10;99.90;;;;;;5028365;28;20427;-72
2022/12/30 06:32:47;;;;;;;;;;;5.10;99.90;;;;;;5009679;28;20299;-71
2022/12/30 06:35:18;;;;;;;;;;;5.10;99.90;;;;;;5020559;28;19928;-73
2022/12/30 06:37:50;;;;;;;;;;;5.10;99.90;;;;;;5028336;28;19932;-73
2022/12/30 06:40:22;;;;;;;;;;;5.10;99.90;;;;;;5000939;28;19925;-73
2022/12/30 06:42:54;;;;;;;;;;;5.10;99.90;;;;;;5014179;28;20006;-73
2022/12/30 06:45:26;;;;;;;;;;;5.10;99.90;;;;;;5026850;28;19971;-72
2022/12/30 06:47:52;;;;;;;;;;;5.10;99.90;;;;;;5012522;28;20561;-71
2022/12/30 06:50:24;;;;;;;;;;;5.10;99.90;;;;;;5013020;28;19932;-72
2022/12/30 06:52:56;;;;;;;;;;;5.10;99.90;;;;;;5013422;28;19925;-72
2022/12/30 06:55:27;;;;;;;;;;;5.10;99.90;;;;;;5013459;28;19932;-73
2022/12/30 06:58:00;;;;;;;;;;;5.10;99.90;;;;;;5013319;28;20339;-73
2022/12/30 07:00:32;;;;;;;;;;;5.10;99.90;;;;;;5030818;28;20582;-71
2022/12/30 07:02:59;;;;;;;;;;;5.10;99.90;;;;;;5013231;28;19989;-73
2022/12/30 07:05:30;;;;;;;;;;;5.10;99.90;;;;;;5013202;28;19929;-73
2022/12/30 07:08:02;;;;;;;;;;;5.20;99.90;;;;;;5013233;28;19932;-74
2022/12/30 07:10:34;;;;;;;;;;;5.20;99.90;;;;;;5012804;28;19926;-73
2022/12/30 07:13:06;;;;;;;;;;;5.10;99.90;;;;;;5013276;28;19960;-73
2022/12/30 07:15:32;;;;;;;;;;;5.20;99.90;;;;;;5013230;28;19925;-72
2022/12/30 07:18:04;;;;;;;;;;;5.20;99.90;;;;;;5029779;28;19933;-73
2022/12/30 07:20:37;;;;;;;;;;;5.20;99.90;;;;;;5012402;28;19925;-72
2022/12/30 07:23:09;;;;;;;;;;;5.20;99.90;;;;;;5010024;28;19925;-72
2022/12/30 07:25:44;;;;;;;;;;;5.30;99.90;;;;;;5009950;28;19933;-71
2022/12/30 07:28:16;;;;;;;;;;;5.30;99.90;;;;;;5003416;28;19933;-72
2022/12/30 07:30:48;;;;;;;;;;;5.30;99.90;;;;;;5009806;28;19929;-73
2022/12/30 07:33:15;;;;;;;;;;;5.30;99.90;;;;;;4996900;28;19932;-72
2022/12/30 07:35:46;;;;;;;;;;;5.30;99.90;;;;;;4994145;28;20388;-73
2022/12/30 07:38:18;;;;;;;;;;;5.30;99.90;;;;;;4994274;28;19961;-73
2022/12/30 07:40:50;;;;;;;;;;;5.30;99.90;;;;;;5010912;28;19926;-72
2022/12/30 07:43:22;;;;;;;;;;;5.30;99.90;;;;;;5019403;28;19925;-71
2022/12/30 07:45:53;;;;;;;;;;;5.20;99.90;;;;;;5032541;28;20392;-73
2022/12/30 07:48:25;;;;;;;;;;;5.20;99.90;;;;;;5013938;28;19932;-73
2022/12/30 07:50:56;;;;;;;;;;;5.20;99.90;;;;;;5012386;28;19925;-72
2022/12/30 07:53:23;;;;;;;;;;;5.10;99.90;;;;;;5012701;28;19932;-73
2022/12/30 07:55:50;;;;;;;;;;;5.10;99.90;;;;;;5012939;28;19929;-73
2022/12/30 07:58:21;;;;;;;;;;;5.10;99.90;;;;;;5030242;28;19929;-72
2022/12/30 08:00:48;;;;;;;;;;;5.00;99.90;;;;;;5008225;28;19933;-72
2022/12/30 08:03:15;;;;;;;;;;;5.00;99.90;;;;;;5031179;28;19925;-72
2022/12/30 08:05:46;;;;;;;;;;;4.90;99.90;;;;;;5016269;28;20435;-73
2022/12/30 08:08:13;;;;;;;;;;;4.80;99.90;;;;;;5020597;28;20024;-72
2022/12/30 08:10:55;;;;;;;;;;;5.00;99.90;;;;;;4999925;28;19929;-72
2022/12/30 08:13:28;;;;;;;;;;;5.10;99.90;;;;;;5027998;28;19925;-72
2022/12/30 08:15:55;;;;;;;;;;;5.30;99.90;;;;;;5020471;28;20016;-71
2022/12/30 08:18:26;;;;;;;;;;;5.40;99.90;;;;;;5015953;28;19932;-71
2022/12/30 08:20:53;;;;;;;;;;;5.40;99.90;;;;;;5013889;28;19925;-72
2022/12/30 08:23:25;;;;;;;;;;;5.40;99.90;;;;;;5031908;28;20319;-73
2022/12/30 08:26:02;;;;;;;;;;;5.40;99.90;;;;;;5032693;28;19929;-72
2022/12/30 08:28:33;;;;;;;;;;;5.50;99.90;;;;;;5030513;28;19933;-73
2022/12/30 08:31:04;;;;;;;;;;;5.50;99.90;;;;;;5010908;28;19929;-73
2022/12/30 08:33:31;;;;;;;;;;;5.50;99.90;;;;;;5018562;28;20255;-72
2022/12/30 08:36:01;;;;;;;;;;;5.50;99.90;;;;;;5013644;28;20089;-73
2022/12/30 08:38:37;;;;;;;;;;;5.60;99.90;;;;;;5028384;28;19925;-73
2022/12/30 08:41:11;;;;;;;;;;;5.50;99.90;;;;;;5031726;28;20050;-73
2022/12/30 08:43:43;;;;;;;;;;;5.40;99.90;;;;;;5026219;28;20388;-73
2022/12/30 08:46:09;;;;;;;;;;;5.40;99.90;;;;;;5028637;28;19929;-73
2022/12/30 08:48:41;;;;;;;;;;;5.50;99.90;;;;;;5013144;28;19933;-73
2022/12/30 08:51:08;;;;;;;;;;;5.40;99.90;;;;;;5019430;28;19964;-72
2022/12/30 08:53:40;;;;;;;;;;;5.50;99.90;;;;;;5030973;28;19933;-73
2022/12/30 08:56:15;;;;;;;;;;;5.50;99.90;;;;;;5022253;28;20423;-72
2022/12/30 08:58:47;;;;;;;;;;;5.50;99.90;;;;;;5032781;28;19978;-73
2022/12/30 09:01:33;;;;;;;;;;;5.50;99.90;;;;;;5030535;28;19925;-73
2022/12/30 09:04:06;;;;;;;;;;;5.50;99.90;;;;;;5010485;28;19936;-74
2022/12/30 09:06:34;;;;;;;;;;;5.60;99.90;;;;;;5012909;28;19925;-73
2022/12/30 09:09:07;;;;;;;;;;;5.60;99.90;;;;;;5029766;28;20346;-73
2022/12/30 09:11:35;;;;;;;;;;;5.70;99.90;;;;;;5014607;28;19952;-72
2022/12/30 09:14:07;;;;;;;;;;;5.70;99.90;;;;;;5037004;28;19932;-74
2022/12/30 09:16:39;;;;;;;;;;;5.70;99.90;;;;;;5039000;28;19913;-73
2022/12/30 09:19:11;;;;;;;;;;;5.70;99.90;;;;;;5013241;28;20033;-74
2022/12/30 09:21:42;;;;;;;;;;;5.80;99.90;;;;;;5029357;28;19933;-73
2022/12/30 09:24:14;;;;;;;;;;;5.80;99.90;;;;;;5028870;28;19926;-73
2022/12/30 09:26:45;;;;;;;;;;;5.90;99.90;;;;;;5031299;28;19933;-73
2022/12/30 09:29:17;;;;;;;;;;;5.90;99.90;;;;;;5031310;28;19956;-73
2022/12/30 09:31:49;;;;;;;;;;;5.90;99.90;;;;;;5012807;28;19929;-73
2022/12/30 09:34:16;;;;;;;;;;;5.90;99.90;;;;;;5013375;28;19926;-73
2022/12/30 09:36:48;;;;;;;;;;;5.90;99.90;;;;;;5033747;28;19950;-72
2022/12/30 09:39:14;;;;;;;;;;;5.90;99.90;;;;;;5015035;28;19929;-73
2022/12/30 09:44:59;;;;;;;;;;;6.00;99.90;;;;;;5028157;28;19936;-73
2022/12/30 09:47:33;;;;;;;;;;;6.10;99.90;;;;;;5026714;28;19926;-73
2022/12/30 09:50:07;;;;;;;;;;;6.10;99.90;;;;;;4998635;28;19976;-72
2022/12/30 09:52:48;;;;;;;;;;;6.20;99.90;;;;;;5011425;28;19925;-72
2022/12/30 09:55:22;;;;;;;;;;;6.20;99.90;;;;;;5029158;28;19979;-73
2022/12/30 09:58:03;;;;;;;;;;;6.30;99.90;;;;;;5017214;28;19925;-72
2022/12/30 10:00:35;;;;;;;;;;;6.30;99.90;;;;;;5019155;28;19929;-72
2022/12/30 10:03:06;;;;;;;;;;;6.30;99.90;;;;;;4988914;28;20347;-73
2022/12/30 10:05:47;;;;;;;;;;;6.30;99.90;;;;;;5014723;28;19983;-72
2022/12/30 10:08:19;;;;;;;;;;;6.40;99.90;;;;;;5009712;28;20427;-72
2022/12/30 10:11:00;;;;;;;;;;;6.40;99.90;;;;;;5010278;28;19933;-73
2022/12/30 10:13:43;;;;;;;;;;;6.50;99.90;;;;;;5028559;28;19999;-74
2022/12/30 10:16:19;;;;;;;;;;;6.50;99.90;;;;;;5004002;28;20162;-73
2022/12/30 10:19:01;;;;;;;;;;;6.60;99.90;;;;;;5027847;28;19932;-72
2022/12/30 10:21:54;;;;;;;;;;;6.60;99.90;;;;;;5028742;28;19979;-72
2022/12/30 10:24:29;;;;;;;;;;;6.70;99.90;;;;;;5016844;28;19925;-73
2022/12/30 10:27:04;;;;;;;;;;;6.70;99.90;;;;;;5029405;28;19925;-72
2022/12/30 10:29:37;;;;;;;;;;;6.70;99.90;;;;;;5012127;28;19925;-73
2022/12/30 10:32:19;;;;;;;;;;;6.80;99.90;;;;;;4994138;28;19925;-73
2022/12/30 10:35:02;;;;;;;;;;;6.80;99.90;;;;;;5027175;28;20222;-73
2022/12/30 10:37:32;;;;;;;;;;;6.80;99.90;;;;;;5028877;28;20020;-73
2022/12/30 10:40:07;;;;;;;;;;;6.80;99.90;;;;;;5027201;28;20007;-72
2022/12/30 10:42:54;;;;;;;;;;;7.00;99.90;;;;;;5012508;28;19935;-71
2022/12/30 10:45:36;;;;;;;;;;;7.00;99.90;;;;;;5027441;28;19932;-73
2022/12/30 10:48:14;;;;;;;;;;;7.10;99.90;;;;;;5022753;28;19933;-74
2022/12/30 10:50:45;;;;;;;;;;;7.10;99.90;;;;;;5021972;28;19933;-73
2022/12/30 10:53:17;;;;;;;;;;;7.10;99.90;;;;;;5020623;28;19929;-73
2022/12/30 10:55:50;;;;;;;;;;;7.10;99.90;;;;;;4997114;28;20343;-72
2022/12/30 10:58:33;;;;;;;;;;;7.10;99.90;;;;;;5011880;28;19925;-72
2022/12/30 11:01:02;;;;;;;;;;;7.10;99.90;;;;;;5025341;28;19937;-74
2022/12/30 11:03:31;;;;;;;;;;;7.20;99.90;;;;;;5013775;28;20024;-70
2022/12/30 11:06:18;;;;;;;;;;;7.20;99.90;;;;;;4991889;28;19944;-73
2022/12/30 11:08:48;;;;;;;;;;;7.20;99.90;;;;;;5009783;28;20354;-73
2022/12/30 11:11:18;;;;;;;;;;;7.30;99.90;;;;;;5011748;28;19948;-73
2022/12/30 11:16:44;;;;;;;;;;;7.30;99.90;;;;;;5027784;28;19964;-73
2022/12/30 11:19:23;;;;;;;;;;;7.40;99.90;;;;;;5008930;28;19925;-73
2022/12/30 11:21:54;;;;;;;;;;;7.50;99.90;;;;;;5010781;28;19926;-73
2022/12/30 11:24:23;;;;;;;;;;;7.50;99.90;;;;;;4995402;28;20023;-74
2022/12/30 11:26:51;;;;;;;;;;;7.60;99.90;;;;;;5002837;28;20396;-74
2022/12/30 11:29:29;;;;;;;;;;;7.70;99.90;;;;;;5006471;28;20020;-73
2022/12/30 11:32:11;;;;;;;;;;;7.70;99.90;;;;;;5026699;28;19932;-73
2022/12/30 11:34:44;;;;;;;;;;;7.80;99.90;;;;;;4991702;28;19929;-74
2022/12/30 11:37:24;;;;;;;;;;;7.90;99.90;;;;;;5027135;28;20274;-73
2022/12/30 11:39:56;;;;;;;;;;;7.90;99.90;;;;;;5026540;28;19938;-72
2022/12/30 11:42:31;;;;;;;;;;;8.00;99.90;;;;;;4998946;28;19932;-72
2022/12/30 11:45:16;;;;;;;;;;;8.00;99.90;;;;;;5015105;28;19940;-72
2022/12/30 11:47:47;;;;;;;;;;;8.10;99.90;;;;;;5010731;28;20017;-74
2022/12/30 11:50:19;;;;;;;;;;;8.20;99.90;;;;;;5010658;28;19925;-73
2022/12/30 11:53:00;;;;;;;;;;;8.30;99.90;;;;;;4998960;28;19925;-73
2022/12/30 11:55:31;;;;;;;;;;;8.30;99.90;;;;;;5013575;28;19960;-72
2022/12/30 11:58:01;;;;;;;;;;;8.40;99.90;;;;;;4996255;28;20008;-72
2022/12/30 12:00:39;;;;;;;;;;;8.40;99.90;;;;;;4998601;28;19933;-72
2022/12/30 12:03:17;;;;;;;;;;;8.50;99.90;;;;;;5009521;28;19932;-74
2022/12/30 12:05:46;;;;;;;;;;;8.50;99.90;;;;;;5027716;28;20016;-73
2022/12/30 12:08:33;;;;;;;;;;;8.50;99.90;;;;;;4989026;28;19980;-72
2022/12/30 12:11:22;;;;;;;;;;;8.50;99.90;;;;;;5012243;28;19933;-73
2022/12/30 12:13:56;;;;;;;;;;;8.50;99.90;;;;;;4993168;28;20024;-74
2022/12/30 12:16:48;;;;;;;;;;;8.60;99.90;;;;;;4996964;28;19932;-73
2022/12/30 12:19:41;;;;;;;;;;;8.60;99.90;;;;;;5038803;28;19933;-70
2022/12/30 12:22:30;;;;;;;;;;;8.60;99.90;;;;;;5037528;28;19925;-73
2022/12/30 12:26:01;;;;;;;;;;;8.60;99.90;;;;;;5023130;28;20069;-73
2022/12/30 12:28:38;;;;;;;;;;;8.60;99.90;;;;;;5029438;28;19925;-73
2022/12/30 12:31:25;;;;;;;;;;;8.70;99.90;;;;;;4998054;28;19969;-72
2022/12/30 12:34:06;;;;;;;;;;;8.70;99.90;;;;;;5017802;28;19925;-73
2022/12/30 12:36:40;;;;;;;;;;;8.80;99.90;;;;;;4998029;28;19972;-72
2022/12/30 12:39:24;;;;;;;;;;;8.80;99.90;;;;;;4994560;28;19925;-73
2022/12/30 12:41:53;;;;;;;;;;;8.90;99.90;;;;;;5013846;28;19925;-72
2022/12/30 12:44:41;;;;;;;;;;;9.00;99.90;;;;;;5013004;28;19925;-71
2022/12/30 12:47:27;;;;;;;;;;;9.00;99.90;;;;;;5003363;28;20669;-72
2022/12/30 12:50:14;;;;;;;;;;;9.10;99.90;;;;;;5009804;28;19953;-73
2022/12/30 12:52:53;;;;;;;;;;;9.10;99.90;;;;;;5026084;28;20012;-72
2022/12/30 12:55:28;;;;;;;;;;;9.10;99.90;;;;;;5008061;28;19925;-72
2022/12/30 12:57:59;;;;;;;;;;;9.20;99.90;;;;;;5014408;28;19925;-73
2022/12/30 13:00:51;;;;;;;;;;;9.10;99.90;;;;;;4989603;28;19979;-73
2022/12/30 13:03:29;;;;;;;;;;;9.10;99.90;;;;;;5012944;28;19935;-73
2022/12/30 13:06:30;;;;;;;;;;;9.00;99.90;;;;;;5023854;28;19956;-73
2022/12/30 13:09:09;;;;;;;;;;;9.00;99.90;;;;;;5027012;28;19929;-72
2022/12/30 13:11:56;;;;;;;;;;;8.90;99.90;;;;;;4997600;28;19925;-73
2022/12/30 13:14:40;;;;;;;;;;;8.90;99.90;;;;;;4985886;28;19979;-73
2022/12/30 13:17:32;;;;;;;;;;;8.80;99.90;;;;;;5013329;28;19925;-71
2022/12/30 13:20:05;;;;;;;;;;;8.80;99.90;;;;;;4987546;28;19929;-73
2022/12/30 13:22:35;;;;;;;;;;;8.70;99.90;;;;;;5013304;28;19936;-72
2022/12/30 13:25:14;;;;;;;;;;;8.70;99.90;;;;;;4996910;28;19976;-72
2022/12/30 13:27:45;;;;;;;;;;;8.60;99.90;;;;;;5012638;28;19948;-72
2022/12/30 13:30:15;;;;;;;;;;;8.60;99.90;;;;;;4997099;28;20048;-73
2022/12/30 13:32:55;;;;;;;;;;;8.60;99.90;;;;;;5007298;28;19925;-72
2022/12/30 13:35:33;;;;;;;;;;;8.50;99.90;;;;;;5011129;28;20319;-72
2022/12/30 13:38:17;;;;;;;;;;;8.50;99.90;;;;;;5016600;28;19990;-72
2022/12/30 13:41:06;;;;;;;;;;;8.50;99.90;;;;;;5005324;28;19925;-72
2022/12/30 13:43:35;;;;;;;;;;;8.50;99.90;;;;;;5010846;28;20343;-72
2022/12/30 13:46:15;;;;;;;;;;;8.50;99.90;;;;;;5003374;28;19925;-72
2022/12/30 13:49:04;;;;;;;;;;;8.50;99.90;;;;;;4997186;28;19955;-72
2022/12/30 13:51:33;;;;;;;;;;;8.50;99.90;;;;;;5012390;28;19932;-72
2022/12/30 13:54:08;;;;;;;;;;;8.40;99.90;;;;;;5025225;28;19932;-72
2022/12/30 13:56:41;;;;;;;;;;;8.60;99.90;;;;;;5011493;28;20004;-72
2022/12/30 13:59:19;;;;;;;;;;;8.80;99.90;;;;;;5011114;28;20557;-72
2022/12/30 14:01:51;;;;;;;;;;;8.80;99.90;;;;;;5012866;28;19925;-73
2022/12/30 14:04:30;;;;;;;;;;;8.80;99.90;;;;;;5013189;28;19925;-71
2022/12/30 14:07:00;;;;;;;;;;;8.80;99.90;;;;;;5026778;28;19933;-73
2022/12/30 14:09:30;;;;;;;;;;;8.60;99.90;;;;;;5013111;28;19925;-71
2022/12/30 14:12:03;;;;;;;;;;;8.60;99.90;;;;;;5008458;28;20382;-73
2022/12/30 14:14:43;;;;;;;;;;;8.50;99.90;;;;;;5009813;28;19940;-73
2022/12/30 14:17:13;;;;;;;;;;;8.40;99.90;;;;;;5021412;28;19932;-72
2022/12/30 14:19:53;;;;;;;;;;;8.30;99.90;;;;;;5020763;28;19960;-72
2022/12/30 14:22:39;;;;;;;;;;;8.30;99.90;;;;;;5025851;28;20067;-73
2022/12/30 14:25:13;;;;;;;;;;;8.20;99.90;;;;;;4993326;28;19926;-73
2022/12/30 14:27:47;;;;;;;;;;;8.20;99.90;;;;;;5013195;28;19925;-73
2022/12/30 14:30:19;;;;;;;;;;;8.10;99.90;;;;;;5003550;28;19929;-73
2022/12/30 14:32:56;;;;;;;;;;;8.10;99.90;;;;;;4996686;28;19925;-73
2022/12/30 14:35:25;;;;;;;;;;;8.00;99.90;;;;;;5003424;28;20388;-72
2022/12/30 14:38:15;;;;;;;;;;;8.00;99.90;;;;;;4996588;28;19991;-70
2022/12/30 14:40:54;;;;;;;;;;;8.00;99.90;;;;;;5010994;28;20009;-73
2022/12/30 14:43:25;;;;;;;;;;;8.00;99.90;;;;;;4996760;28;20548;-73
2022/12/30 14:46:12;;;;;;;;;;;8.00;99.90;;;;;;5009922;28;20020;-72
2022/12/30 14:49:01;;;;;;;;;;;8.00;99.90;;;;;;5012295;28;20311;-73
2022/12/30 14:51:31;;;;;;;;;;;8.00;99.90;;;;;;5023006;28;19935;-71
2022/12/30 14:54:01;;;;;;;;;;;8.00;99.90;;;;;;4994671;28;20028;-73
2022/12/30 14:56:30;;;;;;;;;;;7.90;99.90;;;;;;5012630;28;20027;-71
2022/12/30 14:58:59;;;;;;;;;;;7.90;99.90;;;;;;5012648;28;20011;-73
2022/12/30 15:01:28;;;;;;;;;;;7.90;99.90;;;;;;5025229;28;20020;-73
2022/12/30 15:04:15;;;;;;;;;;;7.90;99.90;;;;;;5025442;28;20301;-73
2022/12/30 15:06:48;;;;;;;;;;;7.90;99.90;;;;;;5007476;28;20008;-73
2022/12/30 15:09:20;;;;;;;;;;;7.90;99.90;;;;;;4993856;28;19925;-73
2022/12/30 15:11:59;;;;;;;;;;;7.90;99.90;;;;;;5027211;28;19936;-73
2022/12/30 15:14:30;;;;;;;;;;;7.80;99.90;;;;;;5008238;28;19947;-73
2022/12/30 15:17:20;;;;;;;;;;;7.80;99.90;;;;;;5021714;28;19925;-71
2022/12/30 15:19:49;;;;;;;;;;;7.70;99.90;;;;;;5016176;28;19925;-73
2022/12/30 15:22:24;;;;;;;;;;;7.70;99.90;;;;;;5016931;28;19929;-73
2022/12/30 15:24:55;;;;;;;;;;;7.70;99.90;;;;;;5021707;28;19976;-72
2022/12/30 15:27:30;;;;;;;;;;;7.60;99.90;;;;;;5042613;28;19929;-69
2022/12/30 15:30:13;;;;;;;;;;;7.60;99.90;;;;;;5025151;28;19925;-73
2022/12/30 15:32:43;;;;;;;;;;;7.60;99.90;;;;;;5015621;28;20028;-72
2022/12/30 15:35:16;;;;;;;;;;;7.50;99.90;;;;;;5015620;28;19925;-72
2022/12/30 15:37:48;;;;;;;;;;;7.50;99.90;;;;;;5000437;28;20011;-73
2022/12/30 15:40:20;;;;;;;;;;;7.50;99.90;;;;;;5022528;28;19932;-73
2022/12/30 15:42:51;;;;;;;;;;;7.40;99.90;;;;;;5012572;28;19975;-73
2022/12/30 15:45:27;;;;;;;;;;;7.50;99.90;;;;;;5024019;28;19925;-73
2022/12/30 15:47:57;;;;;;;;;;;7.50;99.90;;;;;;5019402;28;19971;-71
2022/12/30 15:50:39;;;;;;;;;;;7.60;99.90;;;;;;5009496;28;19924;-71
2022/12/30 15:53:27;;;;;;;;;;;7.60;99.90;;;;;;5007821;28;19925;-73
2022/12/30 15:55:56;;;;;;;;;;;7.50;99.90;;;;;;5029527;28;19925;-73
2022/12/30 15:58:36;;;;;;;;;;;7.60;99.90;;;;;;5027029;28;19939;-73
2022/12/30 16:01:04;;;;;;;;;;;7.50;99.90;;;;;;5026080;28;19948;-72
2022/12/30 16:03:37;;;;;;;;;;;7.50;99.90;;;;;;5014628;28;19926;-73
2022/12/30 16:06:13;;;;;;;;;;;7.50;99.90;;;;;;5029915;28;19925;-73
2022/12/30 16:08:41;;;;;;;;;;;7.50;99.90;;;;;;5027405;28;19947;-73
2022/12/30 16:11:25;;;;;;;;;;;7.50;99.90;;;;;;5003652;28;19933;-73
2022/12/30 16:14:15;;;;;;;;;;;7.40;99.90;;;;;;4998554;28;19995;-72